Terminal Aerodrome Forecast
Issued by NWS Wilmington, OH

Current Version | Previous Version | Graphics & Text | Print | Product List | Glossary On
Versions: 1 2 3 4 5 6 7 8 9 10 11 12 13 14 15 16 17 18 19 20 21 22 23
289
FTUS41 KILN 221734
TAFCVG
TAF
KCVG 221734Z 2218/2324 20008KT P6SM BKN008 OVC010
     FM221900 20005KT P6SM OVC015
     FM222100 19004KT P6SM BKN035
     FM230100 19004KT P6SM BKN025
     FM230600 20004KT 4SM BR OVC015
     FM230900 20004KT 4SM BR VCSH OVC015
     FM231500 21005KT P6SM OVC007
     FM231600 21006KT P6SM OVC010
     FM232000 20005KT P6SM BKN035=

USA.gov is the U.S. government's official web portal to all federal, state and local government web resources and services.